Details From DAOO - Es Senia
To GMMX - Menara
Flight Number -
Tags Generated
Created
Modified
Stats Distance 443 nm / 821 km
Max Altitude 0 ft / 0 m
Waypoints 3
Social Downloads 4
Likes 0
Share VATSIM

Download

Looking for another format? Having issues loading an existing format? Contact us
Advertisement - Login to hide

Notes

Generated

Route

DAOO CNZ GMMX

ID Type Via Altitude Latitude Longitude Leg Dist Tot Dist Heading (true) Name
O DAOO APT - 0 ft / 0 m 35.61852˚ -0.63672˚ - 0 nm - -
CNZ NDB - 0 ft / 0 m 31.60056˚ -7.96444˚ 438 nm 438 nm 239° / 235° MARRAKECH NDB
O GMMX APT - 0 ft / 0 m 31.60837˚ -8.05254˚ 4 nm 443 nm 276° / 276° -

Altitude Profile

Advertisement - Login to hide

Weather


0- 5 10 15 20 25 30 35+ Temperature / ° C

Clouds and Precipitation
Forecast for 2018-05-26 18:00 UTC. Updated 3 hours ago

Ground ~20,000 ft ~40,000 ft Winds

DAOO

Details ICAO DAOO (ORN)
Name ES SENIA
Region Algeria
Timezone Africa/Algiers (UTC+1.0)
Stats Elevation 295 ft / 90 m (AMSL)
Location 35.623858° -0.621183°
Runways 1
Magnetic Variation 0.199° E

METAR

DAOO 262000Z 00000KT 9999 FEW026 SCT233 20/12 Q1012

Decode

TAF

TAF DAOO 261700Z 2618/2718 33010KT 9999 FEW026 BKN233 BECMG 2619/2621 24012KT TEMPO 2703/2708 25015G28KT 9999 SCT026 SCT100 BECMG 2709/2712 28015KT 9999 SCT026

Decode

Departure Runways

ID Width Length Bearing (true) Bearing (mag) Surface Threshold Offset Overrun Length
07 148 ft / 45 m 10,006 ft / 3,050 m 67.06° 66.86° Asphalt 0 ft / 0 m 328 ft / 100 m
25 148 ft / 45 m 10,006 ft / 3,050 m 247.08° 246.88° Asphalt 196 ft / 60 m 0 ft / 0 m

GMMX

Details ICAO GMMX (RAK)
Name MENARA
Region Morocco
Timezone Africa/Casablanca (UTC+0.0)
Stats Elevation 1,545 ft / 471 m (AMSL)
Location 31.606920° -8.036265°
Runways 1
Magnetic Variation 1.950° W

METAR

GMMX 262000Z /////KT 9999 OVC026 Q//// NOSIG

Decode

TAF

TAF GMMX 261700Z 2618/2724 26008KT 8000 BKN025 PROB30 TEMPO 2705/2708 32014KT 5000 BKN023 FEW033TCU RA

Decode

Destination Runways

ID Width Length Bearing (true) Bearing (mag) Surface Threshold Offset Overrun Length
10 148 ft / 45 m 10,169 ft / 3,100 m 95.99° 97.94° Asphalt 918 ft / 280 m 0 ft / 0 m
28 148 ft / 45 m 10,169 ft / 3,100 m 276.00° 277.95° Asphalt 0 ft / 0 m 0 ft / 0 m

Approach Navaids

Runway Type Ident Frequency Range Bearing (true) Bearing (mag) Slope Elevation
10 Localiser MAR 109.70 MHz 18 nm / 33 km 96.03° 97.97° - 1,545 ft / 471 m (AMSL)
10 Glidescope MAR 109.70 MHz 10 nm / 19 km 96.00° 97.95° 3.00° 1,558 ft / 475 m (AMSL)

Popular Alternatives